createdAt,value
2019-04-05T00:01:04.423Z,41.73
2019-04-05T00:03:34.919Z,39.70
2019-04-05T00:06:05.860Z,41.93
2019-04-05T00:08:36.846Z,40.73
2019-04-05T00:11:07.530Z,40.37
2019-04-05T00:13:38.366Z,36.60
2019-04-05T00:16:10.025Z,36.67
2019-04-05T00:18:40.651Z,34.73
2019-04-05T00:21:11.386Z,31.03
2019-04-05T00:23:42.221Z,29.73
2019-04-05T00:26:13.056Z,32.57
2019-04-05T00:28:43.486Z,31.87
2019-04-05T00:31:14.315Z,30.20
2019-04-05T00:33:45.148Z,30.43
2019-04-05T00:36:15.580Z,30.03
2019-04-05T00:38:46.521Z,32.77
2019-04-05T00:41:17.454Z,31.13
2019-04-05T00:43:48.398Z,31.13
2019-04-05T00:46:19.275Z,32.27
2019-04-05T00:48:50.070Z,31.93
2019-04-05T00:51:20.899Z,30.90
2019-04-05T00:53:51.946Z,31.37
2019-04-05T00:56:22.792Z,32.07
2019-04-05T00:58:53.527Z,29.93
2019-04-05T01:01:23.939Z,31.07
2019-04-05T01:03:54.875Z,30.43
2019-04-05T01:06:25.404Z,30.73
2019-04-05T01:08:56.342Z,29.20
2019-04-05T01:11:27.287Z,27.13
2019-04-05T01:13:58.839Z,28.10
2019-04-05T01:16:29.199Z,26.10
2019-04-05T01:18:59.997Z,27.03
2019-04-05T01:21:34.313Z,26.53
2019-04-05T01:24:05.460Z,26.93
2019-04-05T01:26:36.109Z,25.03
2019-04-05T01:29:06.828Z,24.03
2019-04-05T01:31:37.465Z,21.97
2019-04-05T01:34:08.393Z,19.87
2019-04-05T01:36:39.226Z,18.90
2019-04-05T01:39:10.064Z,18.23
2019-04-05T01:41:40.898Z,17.83
2019-04-05T01:44:11.781Z,16.47
2019-04-05T01:46:42.569Z,16.63
2019-04-05T01:49:13.305Z,18.50
2019-04-05T01:51:43.946Z,17.90
2019-04-05T01:54:14.669Z,18.30
2019-04-05T01:56:46.122Z,19.23
2019-04-05T01:59:17.058Z,20.33
2019-04-05T02:01:48.002Z,19.43
2019-04-05T02:04:18.837Z,19.57
2019-04-05T02:06:49.566Z,17.87
2019-04-05T02:09:20.508Z,18.27
2019-04-05T02:11:54.208Z,18.37
2019-04-05T02:14:25.141Z,18.00
2019-04-05T02:16:56.083Z,18.53
2019-04-05T02:19:26.612Z,18.43
2019-04-05T02:21:57.550Z,16.33
2019-04-05T02:24:28.398Z,18.40
2019-04-05T02:26:59.537Z,17.80
2019-04-05T02:29:30.037Z,18.60
2019-04-05T02:32:01.012Z,15.30
2019-04-05T02:34:33.706Z,17.10
2019-04-05T02:37:04.617Z,13.87
2019-04-05T02:39:35.463Z,12.80
2019-04-05T02:42:06.286Z,13.37
2019-04-05T02:44:37.129Z,13.80
2019-04-05T02:47:07.957Z,13.97
2019-04-05T02:49:38.795Z,13.70
2019-04-05T02:52:09.542Z,13.27
2019-04-05T02:54:40.571Z,14.33
2019-04-05T02:57:11.503Z,13.73
2019-04-05T02:59:42.348Z,14.87
2019-04-05T03:02:13.077Z,14.90
2019-04-05T03:04:43.750Z,14.17
2019-04-05T03:07:17.313Z,16.87
2019-04-05T03:09:48.571Z,17.70
2019-04-05T03:12:19.351Z,17.30
2019-04-05T03:14:50.405Z,16.73
2019-04-05T03:17:21.176Z,15.67
2019-04-05T03:19:52.412Z,14.40
2019-04-05T03:22:22.839Z,14.43
2019-04-05T03:24:53.674Z,19.67
2019-04-05T03:27:30.149Z,22.70
2019-04-05T03:30:00.895Z,20.17
2019-04-05T03:32:32.053Z,21.97
2019-04-05T03:35:02.790Z,20.70
2019-04-05T03:37:33.224Z,18.67
2019-04-05T03:40:04.943Z,19.17
2019-04-05T03:42:35.326Z,16.77
2019-04-05T03:45:07.218Z,16.43
2019-04-05T03:47:37.681Z,16.13
2019-04-05T03:50:08.094Z,16.80
2019-04-05T03:52:38.535Z,15.83
2019-04-05T03:55:09.340Z,17.90
2019-04-05T03:57:40.492Z,19.07
2019-04-05T04:00:11.304Z,28.33
2019-04-05T04:02:42.262Z,47.43
2019-04-05T04:05:13.203Z,57.00
2019-04-05T04:07:44.132Z,62.80
2019-04-05T04:10:19.167Z,63.33
2019-04-05T04:12:50.314Z,63.07
2019-04-05T04:15:21.249Z,61.57
2019-04-05T04:17:52.091Z,58.30
2019-04-05T04:20:26.028Z,58.10
2019-04-05T04:22:56.529Z,64.40
2019-04-05T04:25:27.871Z,60.93
2019-04-05T04:27:58.281Z,62.30
2019-04-05T04:30:29.843Z,59.70
2019-04-05T04:33:01.298Z,57.50
2019-04-05T04:35:32.029Z,57.57
2019-04-05T04:38:02.566Z,51.13
2019-04-05T04:40:33.308Z,54.30
2019-04-05T04:43:05.667Z,52.00
2019-04-05T04:45:36.394Z,55.77
2019-04-05T04:48:07.236Z,55.97
2019-04-05T04:50:38.173Z,55.90
2019-04-05T04:53:09.208Z,55.10
2019-04-05T04:55:39.776Z,55.53
2019-04-05T04:58:10.578Z,58.23
2019-04-05T05:00:41.512Z,54.03
2019-04-05T05:03:12.350Z,57.43
2019-04-05T05:05:43.289Z,58.40
2019-04-05T05:08:14.438Z,55.80
2019-04-05T05:10:45.373Z,60.13
2019-04-05T05:13:15.806Z,57.77
2019-04-05T05:15:46.741Z,56.77
2019-04-05T05:18:17.575Z,56.67
2019-04-05T05:20:48.510Z,56.57
2019-04-05T05:23:20.370Z,59.00
2019-04-05T05:25:51.219Z,61.73
2019-04-05T05:28:21.868Z,62.17
2019-04-05T05:30:52.672Z,58.90
2019-04-05T05:33:23.516Z,57.60
2019-04-05T05:35:54.446Z,56.47
2019-04-05T05:38:25.594Z,53.60
2019-04-05T05:40:56.337Z,58.27
2019-04-05T05:43:27.161Z,62.97
2019-04-05T05:45:57.995Z,63.07
2019-04-05T05:48:30.893Z,63.00
2019-04-05T05:51:01.205Z,63.40
2019-04-05T05:53:32.146Z,62.47
2019-04-05T05:56:03.179Z,59.27
2019-04-05T05:58:34.123Z,56.77
2019-04-05T06:01:04.959Z,51.77
2019-04-05T06:03:35.899Z,50.60
2019-04-05T06:06:06.839Z,49.27
2019-04-05T06:08:37.574Z,50.63
2019-04-05T06:11:08.410Z,48.40
2019-04-05T06:13:39.340Z,44.30
2019-04-05T06:16:09.870Z,45.40
2019-04-05T06:18:41.729Z,43.83
2019-04-05T06:21:13.493Z,44.23
2019-04-05T06:23:44.223Z,40.40
2019-04-05T06:26:14.967Z,38.87
2019-04-05T06:28:46.290Z,41.13
2019-04-05T06:31:20.417Z,44.40
2019-04-05T06:33:51.356Z,45.53
2019-04-05T06:36:22.190Z,40.97
2019-04-05T06:38:53.130Z,46.57
2019-04-05T06:41:23.969Z,45.80
2019-04-05T06:43:54.903Z,45.00
2019-04-05T06:46:25.742Z,46.03
2019-04-05T06:48:56.574Z,41.30
2019-04-05T06:51:27.514Z,32.97
2019-04-05T06:53:58.449Z,31.83
2019-04-05T06:56:29.296Z,30.93
2019-04-05T06:59:00.125Z,26.10
2019-04-05T07:01:31.063Z,25.03
2019-04-05T07:04:02.918Z,24.57
2019-04-05T07:06:33.656Z,28.83
2019-04-05T07:09:05.823Z,28.60
2019-04-05T07:11:36.227Z,23.57
2019-04-05T07:14:07.093Z,26.57
2019-04-05T07:16:37.828Z,27.93
2019-04-05T07:19:08.652Z,26.07
2019-04-05T07:21:39.592Z,24.23
2019-04-05T07:24:10.426Z,21.37
2019-04-05T07:26:41.170Z,20.90
2019-04-05T07:29:11.995Z,20.13
2019-04-05T07:31:42.940Z,21.83
2019-04-05T07:34:13.781Z,21.33
2019-04-05T07:36:44.609Z,17.73
2019-04-05T07:39:15.547Z,16.90
2019-04-05T07:41:46.287Z,14.57
2019-04-05T07:44:17.019Z,14.53
2019-04-05T07:46:47.827Z,14.70
2019-04-05T07:49:18.687Z,14.83
2019-04-05T07:51:49.835Z,14.40
2019-04-05T07:54:20.572Z,13.30
2019-04-05T07:56:51.289Z,12.50
2019-04-05T07:59:22.442Z,13.03
2019-04-05T08:01:52.870Z,13.07
2019-04-05T08:04:23.707Z,12.80
2019-04-05T08:06:56.004Z,12.37
2019-04-05T08:09:26.715Z,11.93
2019-04-05T08:11:57.646Z,11.20
2019-04-05T08:14:28.480Z,9.80
2019-04-05T08:16:59.239Z,8.30
2019-04-05T08:19:30.354Z,10.90
2019-04-05T08:22:01.087Z,11.10
2019-04-05T08:24:32.026Z,10.10
2019-04-05T08:27:02.798Z,10.10
2019-04-05T08:29:33.595Z,12.37
2019-04-05T08:32:14.423Z,10.07
2019-04-05T08:34:37.110Z,11.43
2019-04-05T08:37:07.982Z,11.03
2019-04-05T08:39:38.798Z,12.80
2019-04-05T08:42:11.055Z,12.20
2019-04-05T08:44:43.221Z,12.07
2019-04-05T08:47:13.871Z,11.60
2019-04-05T08:49:44.692Z,15.10
2019-04-05T08:52:15.409Z,13.60
2019-04-05T08:54:46.365Z,13.03
2019-04-05T08:57:17.201Z,13.10
2019-04-05T08:59:48.035Z,11.10
2019-04-05T09:02:18.670Z,15.80
2019-04-05T09:04:49.632Z,13.33
2019-04-05T09:07:20.264Z,12.07
2019-04-05T09:09:51.182Z,14.67
2019-04-05T09:12:21.943Z,13.00
2019-04-05T09:14:52.842Z,16.50
2019-04-05T09:17:23.759Z,18.53
2019-04-05T09:19:54.636Z,15.23
2019-04-05T09:22:25.451Z,13.43
2019-04-05T09:24:56.119Z,13.57
2019-04-05T09:27:27.042Z,13.87
2019-04-05T09:29:57.931Z,14.00
2019-04-05T09:32:29.004Z,14.20
2019-04-05T09:34:59.939Z,13.10
2019-04-05T09:37:30.878Z,13.63
2019-04-05T09:40:01.753Z,13.23
2019-04-05T09:42:32.296Z,13.10
2019-04-05T09:45:03.692Z,11.10
2019-04-05T09:47:34.219Z,12.67
2019-04-05T09:50:06.657Z,12.43
2019-04-05T09:52:39.990Z,11.73
2019-04-05T09:55:11.340Z,12.33
2019-04-05T09:57:42.279Z,12.67
2019-04-05T10:00:20.904Z,12.83
2019-04-05T10:02:51.731Z,12.50
2019-04-05T10:05:22.570Z,13.97
2019-04-05T10:07:55.468Z,13.90
2019-04-05T10:10:25.571Z,13.53
2019-04-05T10:12:56.409Z,13.70
2019-04-05T10:15:27.342Z,13.47
2019-04-05T10:17:58.289Z,13.63
2019-04-05T10:20:29.149Z,12.17
2019-04-05T10:23:00.059Z,12.00
2019-04-05T10:25:30.890Z,11.57
2019-04-05T10:28:01.735Z,12.23
2019-04-05T10:30:32.484Z,12.27
2019-04-05T10:33:03.300Z,13.30
2019-04-05T10:35:34.241Z,12.83
2019-04-05T10:38:05.382Z,12.40
2019-04-05T10:40:36.934Z,12.00
2019-04-05T10:43:07.666Z,12.87
2019-04-05T10:45:38.509Z,12.63
2019-04-05T10:48:09.236Z,12.93
2019-04-05T10:50:39.977Z,13.13
2019-04-05T10:53:10.715Z,13.07
2019-04-05T10:55:41.539Z,12.33
2019-04-05T10:58:12.581Z,12.63
2019-04-05T11:00:43.518Z,11.77
2019-04-05T11:03:14.465Z,12.20
2019-04-05T11:05:45.394Z,11.73
2019-04-05T11:08:16.236Z,13.00
2019-04-05T11:10:47.170Z,12.10
2019-04-05T11:13:17.913Z,12.83
2019-04-05T11:15:48.743Z,12.63
2019-04-05T11:18:21.074Z,13.43
2019-04-05T11:20:52.052Z,12.53
2019-04-05T11:23:22.893Z,12.10
2019-04-05T11:25:53.720Z,13.07
2019-04-05T11:28:24.555Z,13.10
2019-04-05T11:30:55.388Z,12.17
2019-04-05T11:33:26.240Z,12.43
2019-04-05T11:35:57.990Z,13.23
2019-04-05T11:38:28.826Z,13.10
2019-04-05T11:40:59.553Z,13.30
2019-04-05T11:43:31.381Z,13.30
2019-04-05T11:46:02.200Z,13.97
2019-04-05T11:48:35.420Z,13.83
2019-04-05T11:51:05.880Z,13.70
2019-04-05T11:53:36.705Z,13.47
2019-04-05T11:56:14.449Z,13.27
2019-04-05T11:58:41.292Z,13.30
2019-04-05T12:01:16.774Z,13.87
2019-04-05T12:03:47.216Z,13.43
2019-04-05T12:06:17.875Z,14.53
2019-04-05T12:08:48.616Z,14.03
2019-04-05T12:11:19.528Z,13.83
2019-04-05T12:13:50.354Z,13.20
2019-04-05T12:16:21.193Z,14.50
2019-04-05T12:18:51.933Z,12.50
2019-04-05T12:21:22.769Z,13.07
2019-04-05T12:23:53.594Z,13.93
2019-04-05T12:26:24.638Z,13.33
2019-04-05T12:28:55.388Z,13.87
2019-04-05T12:31:26.907Z,12.57
2019-04-05T12:33:57.345Z,13.87
2019-04-05T12:36:28.203Z,13.93
2019-04-05T12:38:59.041Z,14.13
2019-04-05T12:41:32.013Z,15.37
2019-04-05T12:44:01.991Z,12.67
2019-04-05T12:46:32.857Z,14.10
2019-04-05T12:49:03.694Z,13.20
2019-04-05T12:51:34.551Z,13.63
2019-04-05T12:54:05.474Z,13.43
2019-04-05T12:56:36.404Z,13.20
2019-04-05T12:59:07.348Z,14.83
2019-04-05T13:01:38.289Z,12.70
2019-04-05T13:04:09.225Z,13.70
2019-04-05T13:06:42.291Z,14.80
2019-04-05T13:09:13.368Z,17.93
2019-04-05T13:11:44.084Z,15.63
2019-04-05T13:14:16.145Z,16.40
2019-04-05T13:16:49.386Z,16.53
2019-04-05T13:19:18.988Z,16.63
2019-04-05T13:21:49.680Z,16.53
2019-04-05T13:24:20.625Z,16.90
2019-04-05T13:26:51.455Z,18.27
2019-04-05T13:29:22.292Z,19.67
2019-04-05T13:31:53.128Z,17.10
2019-04-05T13:34:26.002Z,16.47
2019-04-05T13:36:59.338Z,17.33
2019-04-05T13:39:30.371Z,17.30
2019-04-05T13:42:01.713Z,19.00
2019-04-05T13:44:33.142Z,19.63
2019-04-05T13:47:06.537Z,18.80
2019-04-05T13:49:38.545Z,18.83
2019-04-05T13:52:11.160Z,19.33
2019-04-05T13:54:41.724Z,19.67
2019-04-05T13:57:12.659Z,20.07
2019-04-05T13:59:44.774Z,18.87
2019-04-05T14:02:15.395Z,19.47
2019-04-05T14:04:48.967Z,19.87
2019-04-05T14:07:23.440Z,18.97
2019-04-05T14:09:52.171Z,18.80
2019-04-05T14:12:22.993Z,19.13
2019-04-05T14:14:53.936Z,19.00
2019-04-05T14:17:24.784Z,20.80
2019-04-05T14:19:56.015Z,22.00
2019-04-05T14:22:26.949Z,21.70
2019-04-05T14:24:58.217Z,21.33
2019-04-05T14:27:29.131Z,20.97
2019-04-05T14:30:00.595Z,22.07
2019-04-05T14:32:32.454Z,25.07
2019-04-05T14:35:03.480Z,25.00
2019-04-05T14:37:33.888Z,24.77
2019-04-05T14:40:07.146Z,21.80
2019-04-05T14:42:37.740Z,21.07
2019-04-05T14:45:08.594Z,21.83
2019-04-05T14:47:41.500Z,21.03
2019-04-05T14:50:11.582Z,21.63
2019-04-05T14:52:42.303Z,22.97
2019-04-05T14:55:13.051Z,22.83
2019-04-05T14:57:45.619Z,20.70
2019-04-05T15:00:17.284Z,18.97
2019-04-05T15:02:47.909Z,17.87
2019-04-05T15:05:20.995Z,18.80
2019-04-05T15:07:54.802Z,19.40
2019-04-05T15:10:25.298Z,19.17
2019-04-05T15:12:56.773Z,19.73
2019-04-05T15:15:27.505Z,19.10
2019-04-05T15:17:58.551Z,18.97
2019-04-05T15:20:29.483Z,18.97
2019-04-05T15:23:00.425Z,18.80
2019-04-05T15:25:31.157Z,18.67
2019-04-05T15:28:02.003Z,19.30
2019-04-05T15:30:32.940Z,18.60
2019-04-05T15:33:04.287Z,17.20
2019-04-05T15:35:34.942Z,17.17
2019-04-05T15:38:05.853Z,16.07
2019-04-05T15:40:36.684Z,16.70
2019-04-05T15:43:07.522Z,16.30
2019-04-05T15:45:38.871Z,16.97
2019-04-05T15:48:09.805Z,16.50
2019-04-05T15:50:42.589Z,17.83
2019-04-05T15:53:13.470Z,16.87
2019-04-05T15:55:44.159Z,16.03
2019-04-05T15:58:15.000Z,17.37
2019-04-05T16:00:46.038Z,17.43
2019-04-05T16:03:16.979Z,17.87
2019-04-05T16:05:47.814Z,16.60
2019-04-05T16:08:18.952Z,17.43
2019-04-05T16:10:49.581Z,18.87
2019-04-05T16:13:20.426Z,21.97
2019-04-05T16:15:51.292Z,23.87
2019-04-05T16:18:24.351Z,25.53
2019-04-05T16:20:57.132Z,25.27
2019-04-05T16:23:27.772Z,26.70
2019-04-05T16:25:58.597Z,26.80
2019-04-05T16:28:29.341Z,28.50
2019-04-05T16:31:00.271Z,26.00
2019-04-05T16:33:31.115Z,27.80
2019-04-05T16:36:01.851Z,32.17
2019-04-05T16:38:32.774Z,31.30
2019-04-05T16:41:03.731Z,31.87
2019-04-05T16:43:34.446Z,31.33
2019-04-05T16:46:05.899Z,28.50
2019-04-05T16:48:36.325Z,26.07
2019-04-05T16:51:07.140Z,27.03
2019-04-05T16:53:39.642Z,32.23
2019-04-05T16:56:10.167Z,33.13
2019-04-05T16:58:40.994Z,33.10
2019-04-05T17:01:11.784Z,31.67
2019-04-05T17:03:42.670Z,27.70
2019-04-05T17:06:13.511Z,27.63
2019-04-05T17:08:45.476Z,30.60
2019-04-05T17:11:16.162Z,29.23
2019-04-05T17:13:48.252Z,27.73
2019-04-05T17:16:18.711Z,31.33
2019-04-05T17:18:49.739Z,26.97
2019-04-05T17:21:20.774Z,25.07
2019-04-05T17:23:51.416Z,26.07
2019-04-05T17:26:22.404Z,28.70
2019-04-05T17:28:53.181Z,26.53
2019-04-05T17:31:24.030Z,27.23
2019-04-05T17:33:54.542Z,28.80
2019-04-05T17:36:25.277Z,35.30
2019-04-05T17:38:56.112Z,33.87
2019-04-05T17:41:26.962Z,27.63
2019-04-05T17:43:57.893Z,26.23
2019-04-05T17:46:28.731Z,26.20
2019-04-05T17:48:59.607Z,33.90
2019-04-05T17:51:30.115Z,26.00
2019-04-05T17:54:00.924Z,29.23
2019-04-05T17:56:31.556Z,24.10
2019-04-05T17:59:02.308Z,21.97
2019-04-05T18:01:33.037Z,23.90
2019-04-05T18:04:03.758Z,22.77
2019-04-05T18:06:34.491Z,22.33
2019-04-05T18:09:06.627Z,23.27
2019-04-05T18:11:37.013Z,22.37
2019-04-05T18:14:07.823Z,20.27
2019-04-05T18:16:38.754Z,21.63
2019-04-05T18:19:09.591Z,21.30
2019-04-05T18:21:40.431Z,20.77
2019-04-05T18:24:11.280Z,21.10
2019-04-05T18:26:42.121Z,23.57
2019-04-05T18:29:12.582Z,21.30
2019-04-05T18:31:42.998Z,21.80
2019-04-05T18:34:13.417Z,22.00
2019-04-05T18:36:44.119Z,26.33
2019-04-05T18:39:15.193Z,23.20
2019-04-05T18:41:45.887Z,21.53
2019-04-05T18:44:16.395Z,20.03
2019-04-05T18:46:46.980Z,19.07
2019-04-05T18:49:17.800Z,23.37
2019-04-05T18:51:48.611Z,20.00
2019-04-05T18:54:19.490Z,23.43
2019-04-05T18:56:49.900Z,18.50
2019-04-05T18:59:20.338Z,21.77
2019-04-05T19:01:50.730Z,20.40
2019-04-05T19:04:21.203Z,20.00
2019-04-05T19:06:51.795Z,18.73
2019-04-05T19:09:22.455Z,20.17
2019-04-05T19:11:52.891Z,18.83
2019-04-05T19:14:23.305Z,17.53
2019-04-05T19:16:53.801Z,17.83
2019-04-05T19:19:24.269Z,16.97
2019-04-05T19:21:54.697Z,18.40
2019-04-05T19:24:25.102Z,17.70
2019-04-05T19:26:55.544Z,15.67
2019-04-05T19:29:26.057Z,15.63
2019-04-05T19:49:42.250Z,27.43
2019-04-05T19:52:12.706Z,30.03
2019-04-05T19:54:43.108Z,29.23
2019-04-05T19:57:13.695Z,28.93
2019-04-05T19:59:44.209Z,30.70
2019-04-05T20:02:14.718Z,29.60
2019-04-05T20:04:45.201Z,27.80
2019-04-05T20:07:15.722Z,27.00
2019-04-05T20:09:46.203Z,27.30
2019-04-05T20:12:16.730Z,27.47
2019-04-05T20:14:47.145Z,29.57
2019-04-05T20:17:17.707Z,29.20
2019-04-05T20:19:48.235Z,27.63
2019-04-05T20:22:18.757Z,32.30
2019-04-05T20:24:49.170Z,31.43
2019-04-05T20:27:19.597Z,32.20
2019-04-05T20:29:50.034Z,30.27
2019-04-05T20:32:20.500Z,31.40
2019-04-05T20:34:50.947Z,32.77
2019-04-05T20:37:21.670Z,28.33
2019-04-05T20:39:52.615Z,28.57
2019-04-05T20:42:23.447Z,25.63
2019-04-05T20:44:54.284Z,22.83
2019-04-05T20:47:25.227Z,23.27
2019-04-05T20:49:56.134Z,21.47
2019-04-05T20:52:26.901Z,21.33
2019-04-05T20:54:57.382Z,21.70
2019-04-05T20:57:27.908Z,20.77
2019-04-05T21:00:00.158Z,21.03
2019-04-05T21:02:30.587Z,21.33
2019-04-05T21:05:01.174Z,20.17
2019-04-05T21:07:31.715Z,19.80
2019-04-05T21:10:02.171Z,19.00
2019-04-05T21:12:32.730Z,28.97
2019-04-05T21:15:03.474Z,18.90
2019-04-05T21:17:34.045Z,17.23
2019-04-05T21:20:06.081Z,16.87
2019-04-05T21:22:36.812Z,18.13
2019-04-05T21:25:08.145Z,16.27
2019-04-05T21:27:38.857Z,17.07
2019-04-05T21:30:11.654Z,16.30
2019-04-05T21:32:42.261Z,16.20
2019-04-05T21:35:12.936Z,16.97
2019-04-05T21:37:43.648Z,16.20
2019-04-05T21:40:14.462Z,16.60
2019-04-05T21:42:45.103Z,17.53
2019-04-05T21:45:15.736Z,15.83
2019-04-05T21:47:46.727Z,16.20
2019-04-05T21:50:17.393Z,16.50
2019-04-05T21:52:48.126Z,16.00
2019-04-05T21:55:18.718Z,14.97
2019-04-05T21:57:49.407Z,15.30
2019-04-05T22:00:28.793Z,15.10
2019-04-05T22:02:59.830Z,14.93
2019-04-05T22:05:30.776Z,16.47
2019-04-05T22:08:01.604Z,15.37
2019-04-05T22:10:32.565Z,15.27
2019-04-05T22:13:04.558Z,15.60
2019-04-05T22:15:35.646Z,16.80
2019-04-05T22:18:06.255Z,14.83
2019-04-05T22:20:36.948Z,15.20
2019-04-05T22:23:07.779Z,15.40
2019-04-05T22:25:38.621Z,15.60
2019-04-05T22:28:09.248Z,15.87
2019-04-05T22:30:40.186Z,15.13
2019-04-05T22:33:11.134Z,15.27
2019-04-05T22:35:41.766Z,16.03
2019-04-05T22:38:12.474Z,16.50
2019-04-05T22:40:43.125Z,15.90
2019-04-05T22:43:13.865Z,16.00
2019-04-05T22:45:44.693Z,15.90
2019-04-05T22:48:15.310Z,15.33
2019-04-05T22:50:45.956Z,16.60
2019-04-05T22:53:16.707Z,16.17
2019-04-05T22:55:47.415Z,16.47
2019-04-05T22:58:18.468Z,14.77
2019-04-05T23:00:49.109Z,16.03
2019-04-05T23:03:19.832Z,16.57
2019-04-05T23:05:50.445Z,16.60
2019-04-05T23:08:21.225Z,16.90
2019-04-05T23:10:51.933Z,15.23
2019-04-05T23:13:22.571Z,14.80
2019-04-05T23:15:53.306Z,15.53
2019-04-05T23:18:23.930Z,14.90
2019-04-05T23:20:54.652Z,14.77
2019-04-05T23:23:25.428Z,15.37
2019-04-05T23:25:56.060Z,14.77
2019-04-05T23:28:26.646Z,16.17
2019-04-05T23:30:57.273Z,17.37
2019-04-05T23:33:30.868Z,19.17
2019-04-05T23:36:01.519Z,18.60
2019-04-05T23:38:32.316Z,18.57
2019-04-05T23:41:04.285Z,18.67
2019-04-05T23:43:35.160Z,18.10
2019-04-05T23:46:05.756Z,17.33
2019-04-05T23:48:36.452Z,18.03
2019-04-05T23:51:07.166Z,17.07
2019-04-05T23:53:37.905Z,15.83
2019-04-05T23:56:08.613Z,15.57
2019-04-05T23:58:39.230Z,15.77
